Time;durP1;ratioP1;P1;durP2;ratioP2;P2;SDS_P1;SDS_P2;PMS_P1;PMS_P2;Temp;Humidity;BMP_temperature;BMP_pressure;BME280_temperature;BME280_humidity;BME280_pressure;Samples;Min_cycle;Max_cycle;Signal;HPM_P1;HPM_P2
2022/03/27 00:01:06;;;;;;;14.35;9.18;;;;;;;12.89;41.62;101341.70;1708558;83;27437;-61
2022/03/27 00:03:33;;;;;;;19.90;9.33;;;;;;;12.88;42.36;101353.48;1726255;83;25818;-61
2022/03/27 00:06:01;;;;;;;28.30;9.10;;;;;;;12.91;44.42;101341.91;1726445;81;25774;-62
2022/03/27 00:08:28;;;;;;;28.15;9.38;;;;;;;12.87;44.64;101342.33;1726167;83;25784;-62
2022/03/27 00:13:41;;;;;;;27.75;10.32;;;;;;;12.75;47.17;101362.70;1764579;80;27496;-61
2022/03/27 00:16:10;;;;;;;22.10;9.28;;;;;;;12.62;48.88;101368.80;1773762;80;25832;-62
2022/03/27 00:18:38;;;;;;;25.10;9.55;;;;;;;12.56;50.78;101353.16;1773514;80;25746;-63
2022/03/27 00:21:05;;;;;;;13.30;7.70;;;;;;;12.41;51.02;101372.89;1773727;80;26543;-61
2022/03/27 00:23:32;;;;;;;18.50;8.70;;;;;;;12.29;51.50;101377.52;1773705;80;25761;-61
2022/03/27 00:26:00;;;;;;;18.55;9.20;;;;;;;12.20;51.42;101378.67;1760501;80;27502;-59
2022/03/27 00:28:32;;;;;;;14.00;8.35;;;;;;;12.11;51.22;101378.59;1756176;81;25931;-61
2022/03/27 00:30:56;;;;;;;16.93;8.33;;;;;;;11.98;50.93;101390.44;1756528;80;25485;-63
2022/03/27 00:33:23;;;;;;;18.90;8.75;;;;;;;11.87;51.19;101389.98;1756462;81;25682;-62
2022/03/27 00:35:50;;;;;;;18.80;8.28;;;;;;;11.78;51.31;101396.14;1756232;81;25457;-61
2022/03/27 00:38:17;;;;;;;19.62;8.78;;;;;;;11.70;52.46;101403.98;1756593;81;28282;-61
2022/03/27 00:40:44;;;;;;;16.85;8.53;;;;;;;11.59;52.71;101411.16;1756444;81;25698;-61
2022/03/27 00:43:12;;;;;;;10.82;7.78;;;;;;;11.49;53.18;101407.50;1756524;81;25461;-61
2022/03/27 00:45:39;;;;;;;15.63;8.45;;;;;;;11.40;53.05;101411.80;1756662;81;25786;-61
2022/03/27 00:48:06;;;;;;;12.95;9.15;;;;;;;11.32;53.26;101412.08;1756353;81;25753;-61
2022/03/27 00:50:33;;;;;;;14.63;8.55;;;;;;;11.24;53.14;101429.73;1756408;80;27513;-61
2022/03/27 00:53:00;;;;;;;13.85;8.43;;;;;;;11.21;53.48;101426.39;1756284;81;25719;-60
2022/03/27 00:55:27;;;;;;;13.32;8.80;;;;;;;11.17;52.45;101435.22;1756467;81;26332;-61
2022/03/27 00:57:55;;;;;;;18.17;8.90;;;;;;;11.14;52.73;101439.99;1748207;81;25801;-61
2022/03/27 01:00:52;;;;;;;18.90;8.63;;;;;;;11.06;53.62;101437.44;1756530;81;25501;-61
2022/03/27 01:03:23;;;;;;;15.08;9.05;;;;;;;10.94;53.61;101451.86;1749277;81;27442;-60
2022/03/27 01:05:53;;;;;;;16.25;8.53;;;;;;;10.82;54.09;101444.28;1767207;81;25955;-61
2022/03/27 01:11:16;;;;;;;15.48;8.15;;;;;;;10.72;53.45;101467.03;1767050;79;25804;-62
2022/03/27 01:13:52;;;;;;;14.70;7.33;;;;;;;10.69;52.86;101470.45;1767023;80;26444;-61
2022/03/27 01:16:41;;;;;;;14.78;7.20;;;;;;;10.61;52.09;101473.27;1764762;80;27524;-63
2022/03/27 01:19:13;;;;;;;16.20;6.22;;;;;;;10.58;51.18;101483.41;1741972;82;25843;-62
2022/03/27 01:21:44;;;;;;;11.33;6.92;;;;;;;10.56;50.37;101484.01;1695425;84;25742;-62
2022/03/27 01:24:12;;;;;;;14.95;5.33;;;;;;;10.54;49.87;101489.48;1722945;83;25755;-62
2022/03/27 01:26:40;;;;;;;20.00;5.55;;;;;;;10.49;49.46;101490.34;1767431;79;25720;-62
2022/03/27 01:29:08;;;;;;;18.10;5.30;;;;;;;10.44;49.16;101493.38;1766947;79;27612;-61
2022/03/27 01:31:35;;;;;;;13.15;4.92;;;;;;;10.42;48.86;101510.63;1767154;81;25927;-62
2022/03/27 01:34:04;;;;;;;14.50;5.20;;;;;;;10.34;48.18;101506.66;1767255;81;25798;-61
2022/03/27 01:36:36;;;;;;;18.73;5.58;;;;;;;10.27;47.86;101507.23;1767197;81;25982;-61
2022/03/27 01:39:10;;;;;;;14.80;5.17;;;;;;;10.18;47.32;101520.40;1767033;81;25754;-61
2022/03/27 01:41:38;;;;;;;17.07;5.05;;;;;;;10.13;47.11;101526.59;1767552;81;28145;-63
2022/03/27 01:44:09;;;;;;;13.18;5.08;;;;;;;10.04;47.00;101532.65;1766984;81;25753;-62
2022/03/27 01:46:38;;;;;;;11.15;4.85;;;;;;;9.89;46.74;101536.48;1767287;81;25768;-60
2022/03/27 01:49:07;;;;;;;18.98;4.03;;;;;;;9.82;46.67;101542.78;1767115;80;25717;-63
2022/03/27 01:51:35;;;;;;;18.17;5.35;;;;;;;9.77;46.35;101553.02;1767548;81;26067;-61
2022/03/27 01:54:02;;;;;;;19.52;5.87;;;;;;;9.63;45.49;101542.81;1767295;81;28477;-62
2022/03/27 01:56:28;;;;;;;121.10;49.58;;;;;;;9.55;45.27;101546.04;1767277;81;25728;-61
2022/03/27 01:58:55;;;;;;;19.85;6.12;;;;;;;9.49;45.37;101542.46;1767084;81;25720;-62
2022/03/27 02:01:23;;;;;;;12.95;5.80;;;;;;;9.41;45.40;101552.89;1767106;81;25787;-62
2022/03/27 02:03:50;;;;;;;21.68;5.87;;;;;;;9.31;45.85;101558.05;1755789;81;25706;-61
2022/03/27 02:06:18;;;;;;;20.88;6.50;;;;;;;9.22;45.79;101577.48;1716963;83;27461;-61
2022/03/27 02:08:45;;;;;;;23.87;6.42;;;;;;;9.12;46.29;101577.75;1753429;81;25909;-62
2022/03/27 02:11:15;;;;;;;19.40;6.60;;;;;;;9.00;46.44;101588.39;1716720;83;25648;-62
2022/03/27 02:13:42;;;;;;;17.02;8.20;;;;;;;8.96;46.70;101599.44;1753355;80;25867;-60
2022/03/27 02:16:10;;;;;;;21.73;6.75;;;;;;;8.90;47.12;101593.52;1717190;82;25468;-62
2022/03/27 02:18:37;;;;;;;23.98;7.53;;;;;;;8.84;47.14;101618.09;1753661;80;28150;-61
2022/03/27 02:21:05;;;;;;;21.23;7.15;;;;;;;8.77;47.22;101616.30;1717132;83;25783;-61
2022/03/27 02:23:32;;;;;;;27.98;7.45;;;;;;;8.70;47.45;101611.44;1753647;81;26140;-61
2022/03/27 02:25:58;;;;;;;19.10;6.65;;;;;;;8.62;47.43;101624.05;1717155;83;25786;-61
2022/03/27 02:28:26;;;;;;;17.00;7.47;;;;;;;8.55;47.36;101618.22;1753787;81;25725;-61
2022/03/27 02:30:54;;;;;;;13.48;6.72;;;;;;;8.48;47.18;101618.25;1717080;83;27468;-61
2022/03/27 02:33:21;;;;;;;14.73;5.72;;;;;;;8.38;47.02;101615.27;1753683;81;25607;-60
2022/03/27 02:35:48;;;;;;;17.50;6.47;;;;;;;8.33;46.85;101631.31;1717593;83;25508;-61
2022/03/27 02:38:16;;;;;;;17.48;5.78;;;;;;;8.25;46.84;101633.13;1753626;81;25770;-60
2022/03/27 02:40:45;;;;;;;18.17;6.30;;;;;;;8.16;46.68;101630.56;1717168;83;25756;-61
2022/03/27 02:43:13;;;;;;;13.62;5.40;;;;;;;8.09;46.38;101650.22;1753634;81;28299;-61
2022/03/27 02:45:40;;;;;;;13.15;5.75;;;;;;;8.02;45.80;101647.55;1717435;83;25839;-61
2022/03/27 02:48:08;;;;;;;15.80;5.53;;;;;;;7.93;45.39;101656.18;1753601;81;26402;-61
2022/03/27 02:50:43;;;;;;;15.48;5.30;;;;;;;7.87;45.29;101652.06;1717288;83;25784;-61
2022/03/27 02:53:08;;;;;;;8.23;4.87;;;;;;;7.82;45.09;101652.35;1753500;81;25761;-61
2022/03/27 02:55:34;;;;;;;10.75;4.90;;;;;;;7.80;44.75;101653.38;1717112;83;27404;-61
2022/03/27 02:58:02;;;;;;;12.20;5.42;;;;;;;7.73;44.49;101663.64;1745767;81;26060;-60
2022/03/27 03:00:29;;;;;;;16.27;4.85;;;;;;;7.66;44.10;101667.17;1717260;82;25903;-61
2022/03/27 03:02:56;;;;;;;14.87;4.67;;;;;;;7.61;43.60;101665.27;1748696;81;25974;-62
2022/03/27 03:05:24;;;;;;;11.45;5.10;;;;;;;7.55;43.43;101660.27;1737786;82;25753;-61
2022/03/27 03:07:51;;;;;;;11.03;4.67;;;;;;;7.52;43.36;101661.33;1737523;82;27482;-59
2022/03/27 03:10:19;;;;;;;16.07;4.62;;;;;;;7.49;43.28;101670.88;1738025;82;25715;-61
2022/03/27 03:12:47;;;;;;;23.42;5.22;;;;;;;7.46;43.07;101661.72;1737805;82;25834;-60
2022/03/27 03:15:14;;;;;;;22.40;6.05;;;;;;;7.44;42.85;101666.30;1737896;82;25794;-60
2022/03/27 03:17:41;;;;;;;17.02;5.20;;;;;;;7.38;43.21;101679.19;1737732;82;25899;-61
2022/03/27 03:20:12;;;;;;;12.07;5.50;;;;;;;7.34;43.45;101688.77;1737851;82;27641;-60
2022/03/27 03:22:41;;;;;;;20.48;6.22;;;;;;;7.31;43.67;101692.08;1737474;82;25825;-60
2022/03/27 03:25:09;;;;;;;12.80;5.97;;;;;;;7.27;44.15;101702.11;1738793;82;25738;-60
2022/03/27 03:27:37;;;;;;;14.65;5.28;;;;;;;7.23;44.41;101705.05;1740394;81;25929;-60
2022/03/27 03:30:07;;;;;;;16.37;5.78;;;;;;;7.17;44.72;101709.83;1740402;82;25762;-60
2022/03/27 03:32:35;;;;;;;14.30;5.62;;;;;;;7.13;44.83;101713.62;1740603;82;28324;-61
2022/03/27 03:35:04;;;;;;;16.12;6.58;;;;;;;7.08;44.89;101716.22;1740533;82;25702;-62
2022/03/27 03:37:31;;;;;;;18.52;5.67;;;;;;;7.03;44.98;101732.05;1740346;81;25789;-61
2022/03/27 03:39:59;;;;;;;18.90;5.87;;;;;;;6.98;45.25;101735.94;1740822;82;26640;-61
2022/03/27 03:42:26;;;;;;;19.20;5.53;;;;;;;6.95;45.02;101749.52;1740666;82;25651;-61
2022/03/27 03:44:53;;;;;;;20.92;4.40;;;;;;;6.90;44.24;101769.84;1740472;82;27451;-61
2022/03/27 03:47:19;;;;;;;21.85;4.12;;;;;;;6.82;43.29;101779.63;1740771;82;25734;-61
2022/03/27 03:49:46;;;;;;;14.18;3.47;;;;;;;6.69;41.97;101787.94;1740241;82;25707;-60
2022/03/27 03:52:13;;;;;;;10.38;2.77;;;;;;;6.64;41.42;101798.89;1740540;81;25837;-61
2022/03/27 03:54:40;;;;;;;16.00;3.00;;;;;;;6.56;40.10;101797.13;1740535;82;25694;-61
2022/03/27 03:57:06;;;;;;;9.85;2.70;;;;;;;6.41;37.69;101802.38;1740764;81;27642;-61
2022/03/27 03:59:36;;;;;;;17.23;2.25;;;;;;;6.34;37.44;101801.44;1737741;82;25776;-60
2022/03/27 04:02:08;;;;;;;12.58;1.92;;;;;;;6.25;36.86;101811.69;1737673;82;25679;-61
2022/03/27 04:04:36;;;;;;;14.78;1.90;;;;;;;6.12;36.12;101822.66;1737731;81;25811;-62
2022/03/27 04:07:04;;;;;;;19.48;2.20;;;;;;;6.06;36.67;101836.31;1737676;81;25871;-61
2022/03/27 04:09:31;;;;;;;14.10;2.15;;;;;;;6.03;36.35;101840.50;1737970;82;28344;-61
2022/03/27 04:11:58;;;;;;;9.65;1.98;;;;;;;5.98;35.94;101843.83;1737515;82;25990;-61
2022/03/27 04:14:26;;;;;;;14.53;2.27;;;;;;;5.91;35.85;101853.52;1737429;82;25694;-61
2022/03/27 04:16:53;;;;;;;9.35;2.35;;;;;;;5.86;35.83;101858.23;1737665;82;25810;-61
2022/03/27 04:19:20;;;;;;;10.70;3.30;;;;;;;5.82;35.99;101854.47;1727821;81;25805;-61
2022/03/27 04:21:46;;;;;;;11.53;2.37;;;;;;;5.78;36.26;101863.96;1728353;83;27475;-60
2022/03/27 04:24:14;;;;;;;12.68;2.40;;;;;;;5.73;35.89;101870.47;1728135;82;25789;-60
2022/03/27 04:26:41;;;;;;;17.05;2.20;;;;;;;5.69;35.56;101868.92;1737531;82;25513;-58
2022/03/27 04:29:10;;;;;;;7.30;2.50;;;;;;;5.66;35.58;101877.06;1737723;82;25802;-60
2022/03/27 04:31:40;;;;;;;21.60;2.65;;;;;;;5.64;35.31;101871.81;1737476;82;25808;-61
2022/03/27 04:34:08;;;;;;;13.55;3.00;;;;;;;5.58;35.10;101882.78;1738041;82;27427;-60
2022/03/27 04:36:35;;;;;;;12.53;2.65;;;;;;;5.54;35.07;101880.73;1737689;81;25702;-60
2022/03/27 04:39:03;;;;;;;8.10;1.70;;;;;;;5.53;34.76;101895.02;1737919;82;25787;-60
2022/03/27 04:41:30;;;;;;;9.68;1.77;;;;;;;5.49;34.27;101898.31;1737943;82;25787;-61
2022/03/27 04:43:58;;;;;;;9.63;2.00;;;;;;;5.47;34.37;101900.67;1737648;82;25815;-61
2022/03/27 04:46:25;;;;;;;14.65;3.00;;;;;;;5.48;34.14;101913.08;1737665;82;27491;-61
2022/03/27 04:48:52;;;;;;;16.02;2.62;;;;;;;5.47;33.53;101916.20;1737443;82;25783;-60
2022/03/27 04:51:19;;;;;;;6.05;1.82;;;;;;;5.44;33.75;101917.70;1737606;82;25647;-61
2022/03/27 04:53:46;;;;;;;14.60;3.00;;;;;;;5.45;33.48;101932.78;1737958;81;25807;-61
2022/03/27 04:56:13;;;;;;;6.33;2.40;;;;;;;5.43;33.45;101941.77;1737801;82;25751;-61
2022/03/27 04:58:39;;;;;;;9.63;2.50;;;;;;;5.42;33.44;101944.92;1737864;82;27599;-60
2022/03/27 05:01:07;;;;;;;5.45;2.17;;;;;;;5.39;33.66;101954.41;1737799;82;25841;-59
2022/03/27 05:03:33;;;;;;;15.05;1.85;;;;;;;5.40;33.79;101954.80;1742089;80;25477;-61
2022/03/27 05:06:00;;;;;;;2.33;1.70;;;;;;;5.43;33.95;101952.45;1717363;83;26620;-61
2022/03/27 05:08:27;;;;;;;14.90;2.45;;;;;;;5.39;33.60;101954.41;1753654;81;25726;-61
2022/03/27 05:10:54;;;;;;;7.50;1.40;;;;;;;5.38;33.44;101967.83;1717103;83;28219;-61
2022/03/27 05:13:21;;;;;;;12.82;4.70;;;;;;;5.36;33.10;101952.35;1753617;81;25829;-61
2022/03/27 05:15:48;;;;;;;7.00;1.77;;;;;;;5.28;33.34;101960.26;1717329;83;25475;-60
2022/03/27 05:18:15;;;;;;;3.52;1.55;;;;;;;5.23;33.65;101962.30;1753645;81;25811;-60
2022/03/27 05:20:44;;;;;;;18.80;3.08;;;;;;;5.22;33.69;101968.56;1717066;83;25778;-60
2022/03/27 05:23:11;;;;;;;6.00;2.00;;;;;;;5.27;33.53;101961.67;1753686;80;27527;-60
2022/03/27 05:25:42;;;;;;;13.68;2.05;;;;;;;5.24;33.81;101976.03;1699216;83;25733;-62
2022/03/27 05:28:10;;;;;;;5.20;1.67;;;;;;;5.27;33.72;101969.68;1744065;80;25510;-61
2022/03/27 05:30:38;;;;;;;8.30;1.80;;;;;;;5.23;33.77;101958.29;1754446;81;25770;-62
2022/03/27 05:33:06;;;;;;;11.35;1.87;;;;;;;5.22;33.79;101966.34;1754574;80;25811;-59
2022/03/27 05:35:34;;;;;;;7.72;1.45;;;;;;;5.20;33.97;101969.58;1754554;80;27463;-61
2022/03/27 05:38:01;;;;;;;9.90;2.15;;;;;;;5.17;33.70;101978.56;1754394;81;25718;-61
2022/03/27 05:40:29;;;;;;;7.30;1.98;;;;;;;5.19;33.28;101961.17;1754573;80;25676;-61
2022/03/27 05:42:56;;;;;;;4.58;1.40;;;;;;;5.16;33.43;101975.50;1754444;80;26565;-61
2022/03/27 05:45:23;;;;;;;3.77;1.47;;;;;;;5.13;33.69;101968.99;1754813;81;25515;-61
2022/03/27 05:47:51;;;;;;;6.35;1.65;;;;;;;5.15;33.70;101977.31;1754448;80;27071;-61
2022/03/27 05:50:22;;;;;;;7.60;1.35;;;;;;;5.15;33.21;101983.98;1754678;81;25838;-61
2022/03/27 05:52:52;;;;;;;7.62;2.52;;;;;;;5.16;32.89;101987.50;1743839;82;25505;-61
2022/03/27 05:55:20;;;;;;;9.65;1.40;;;;;;;5.14;33.12;102004.92;1741693;81;25766;-61
2022/03/27 05:57:48;;;;;;;8.25;1.85;;;;;;;5.17;33.25;102001.24;1736063;81;25703;-60
2022/03/27 06:00:20;;;;;;;16.32;1.95;;;;;;;5.19;32.73;101976.70;1736089;81;27573;-61
2022/03/27 06:02:47;;;;;;;10.13;1.75;;;;;;;5.19;32.84;102006.53;1739860;81;25755;-60
2022/03/27 06:05:14;;;;;;;10.10;1.87;;;;;;;5.17;33.12;102005.24;1738060;81;26446;-61
2022/03/27 06:07:47;;;;;;;20.17;2.20;;;;;;;5.19;33.29;102012.72;1737353;81;25825;-61
2022/03/27 06:13:38;;;;;;;33.05;3.33;;;;;;;5.23;33.07;102004.98;1752198;80;27492;-61
2022/03/27 06:16:05;;;;;;;21.37;3.83;;;;;;;5.26;32.88;102022.64;1753230;81;25757;-60
2022/03/27 06:18:32;;;;;;;11.60;2.33;;;;;;;5.30;32.90;102012.20;1737975;81;25759;-60
2022/03/27 06:20:58;;;;;;;23.62;2.55;;;;;;;5.33;32.31;102004.07;1674750;83;25808;-61
2022/03/27 06:23:25;;;;;;;16.37;2.70;;;;;;;5.35;32.01;102006.20;1738297;81;25703;-60
2022/03/27 06:25:52;;;;;;;22.30;2.58;;;;;;;5.37;32.09;101999.45;1705000;83;27550;-61
2022/03/27 06:28:20;;;;;;;32.50;3.58;;;;;;;5.33;32.25;102004.92;1749164;81;25662;-59
2022/03/27 06:30:47;;;;;;;41.48;2.83;;;;;;;5.38;32.26;101997.19;1717169;83;25748;-60
2022/03/27 06:33:15;;;;;;;29.55;2.50;;;;;;;5.37;32.12;101995.45;1753573;81;25889;-60
2022/03/27 06:35:42;;;;;;;25.10;2.85;;;;;;;5.38;32.47;102007.38;1717245;83;25555;-60
2022/03/27 06:38:08;;;;;;;16.27;1.85;;;;;;;5.47;32.53;102013.61;1753363;81;27486;-60
2022/03/27 06:40:35;;;;;;;29.00;2.52;;;;;;;5.48;32.33;102014.50;1717525;83;25804;-60
2022/03/27 06:43:02;;;;;;;55.30;3.17;;;;;;;5.45;32.71;101991.50;1753656;81;25491;-61
2022/03/27 06:45:31;;;;;;;22.15;3.15;;;;;;;5.53;32.22;101987.11;1706330;82;26467;-61
2022/03/27 06:47:58;;;;;;;19.42;1.90;;;;;;;5.49;32.47;102005.55;1739934;81;25698;-62
2022/03/27 06:50:26;;;;;;;52.38;2.87;;;;;;;5.51;32.61;102022.38;1677199;83;27676;-62
2022/03/27 06:52:54;;;;;;;15.95;2.27;;;;;;;5.53;32.78;102010.28;1677579;84;25785;-61
2022/03/27 06:55:21;;;;;;;36.30;2.80;;;;;;;5.54;32.41;102015.53;1753526;81;25746;-61
2022/03/27 06:57:49;;;;;;;33.95;3.83;;;;;;;5.60;31.43;102009.04;1764899;79;26744;-62
2022/03/27 07:03:05;;;;;;;19.02;2.42;;;;;;;5.62;31.16;102017.36;1691078;83;28339;-61
2022/03/27 07:05:44;;;;;;;33.33;2.52;;;;;;;5.68;31.37;102044.25;1688088;83;26594;-61
2022/03/27 07:08:15;;;;;;;21.40;3.05;;;;;;;5.72;31.11;102020.48;1723376;83;25684;-61
2022/03/27 07:10:44;;;;;;;13.40;1.85;;;;;;;5.85;31.07;102027.42;1690939;83;25841;-60
2022/03/27 07:13:13;;;;;;;21.17;2.65;;;;;;;5.98;30.98;102037.04;1660060;86;25790;-61
2022/03/27 07:15:42;;;;;;;23.07;2.75;;;;;;;6.01;30.75;102035.56;1703820;83;28288;-61
2022/03/27 07:18:10;;;;;;;28.23;3.37;;;;;;;6.05;30.84;102033.64;1703979;83;25764;-61
2022/03/27 07:20:43;;;;;;;42.30;3.58;;;;;;;6.07;31.53;102032.61;1738228;81;25769;-61
2022/03/27 07:23:13;;;;;;;9.73;2.12;;;;;;;6.06;30.66;102051.37;1737276;81;25954;-60
2022/03/27 07:25:43;;;;;;;25.17;2.55;;;;;;;6.14;30.03;102054.52;1704692;83;25698;-60
2022/03/27 07:28:13;;;;;;;49.85;2.95;;;;;;;6.19;30.53;102050.29;1737262;81;28439;-62
2022/03/27 07:30:42;;;;;;;49.35;3.90;;;;;;;6.28;30.28;102044.97;1737643;81;25736;-60
2022/03/27 07:33:10;;;;;;;33.75;3.50;;;;;;;6.31;30.39;102052.36;1701245;83;26551;-61
2022/03/27 07:35:37;;;;;;;46.65;3.20;;;;;;;6.36;30.80;102067.72;1738216;80;26752;-61
2022/03/27 07:38:08;;;;;;;29.90;3.17;;;;;;;6.51;30.83;102073.22;1674852;84;25560;-62
2022/03/27 07:40:36;;;;;;;25.35;2.52;;;;;;;6.63;29.90;102075.73;1715324;82;27449;-61
2022/03/27 07:43:03;;;;;;;18.80;2.05;;;;;;;6.65;29.07;102067.17;1722149;81;25932;-61
2022/03/27 07:45:33;;;;;;;26.15;2.75;;;;;;;6.64;29.07;102064.09;1719038;81;25811;-62
2022/03/27 07:48:01;;;;;;;28.73;2.22;;;;;;;6.73;28.88;102084.53;1722374;83;25928;-61
2022/03/27 07:50:32;;;;;;;12.78;2.50;;;;;;;6.76;29.41;102078.64;1722133;83;25739;-61
2022/03/27 07:53:01;;;;;;;21.02;3.47;;;;;;;6.80;29.83;102083.75;1722176;82;27490;-60
2022/03/27 07:55:30;;;;;;;16.82;2.10;;;;;;;6.87;29.32;102096.34;1722338;83;25474;-60
2022/03/27 07:58:00;;;;;;;5.17;1.40;;;;;;;6.91;29.59;102105.08;1722591;81;26208;-60
2022/03/27 08:00:29;;;;;;;14.55;1.90;;;;;;;7.10;26.97;102084.44;1718651;82;26621;-60
2022/03/27 08:02:57;;;;;;;25.90;2.33;;;;;;;7.17;27.11;102083.65;1721745;82;25797;-61
2022/03/27 08:05:25;;;;;;;22.20;2.00;;;;;;;7.21;26.65;102099.92;1713561;82;28127;-60
2022/03/27 08:07:52;;;;;;;28.17;3.35;;;;;;;7.27;27.06;102092.04;1701818;82;25753;-61
2022/03/27 08:10:20;;;;;;;33.13;2.35;;;;;;;7.31;27.52;102110.98;1703577;82;25520;-61
2022/03/27 08:12:48;;;;;;;33.98;3.40;;;;;;;7.37;27.33;102103.98;1705850;83;25734;-61
2022/03/27 08:15:17;;;;;;;29.10;3.08;;;;;;;7.46;27.53;102103.49;1691144;83;26795;-61
2022/03/27 08:17:44;;;;;;;40.17;2.98;;;;;;;7.54;27.39;102090.16;1675259;83;27560;-61
2022/03/27 08:20:12;;;;;;;28.62;3.12;;;;;;;7.56;27.76;102109.69;1697143;83;25803;-61
2022/03/27 08:22:39;;;;;;;13.08;1.62;;;;;;;7.63;27.17;102103.05;1699326;83;25759;-61
2022/03/27 08:25:09;;;;;;;28.42;2.20;;;;;;;7.64;26.48;102089.55;1698481;83;26569;-58
2022/03/27 08:27:36;;;;;;;24.45;1.77;;;;;;;7.80;26.79;102110.12;1695532;82;25932;-60
2022/03/27 08:30:06;;;;;;;25.65;3.35;;;;;;;7.83;26.84;102116.66;1696667;82;27508;-61
2022/03/27 08:32:32;;;;;;;24.55;3.70;;;;;;;7.89;26.63;102114.13;1698998;83;25759;-60
2022/03/27 08:34:59;;;;;;;31.50;2.92;;;;;;;7.92;26.76;102093.88;1697359;83;25736;-61
2022/03/27 08:37:26;;;;;;;18.82;2.27;;;;;;;8.08;26.83;102117.51;1700315;83;25756;-62
2022/03/27 08:39:53;;;;;;;20.62;4.12;;;;;;;8.20;26.00;102073.53;1711598;83;25803;-60
2022/03/27 08:42:20;;;;;;;26.60;2.05;;;;;;;8.36;25.81;102105.66;1711821;83;27522;-61
2022/03/27 08:44:47;;;;;;;15.28;2.33;;;;;;;8.44;24.76;102108.76;1711961;82;25803;-61
2022/03/27 08:47:27;;;;;;;25.27;2.45;;;;;;;8.58;24.28;102115.58;1711884;82;25739;-61
2022/03/27 08:50:09;;;;;;;21.33;2.00;;;;;;;8.64;24.15;102122.41;1711790;83;25799;-61
2022/03/27 08:52:58;;;;;;;24.02;2.05;;;;;;;8.71;23.84;102104.98;1711816;83;25774;-61
2022/03/27 08:55:43;;;;;;;19.37;1.92;;;;;;;8.87;23.92;102122.38;1711894;82;27458;-61
2022/03/27 08:58:11;;;;;;;21.20;2.62;;;;;;;9.02;23.96;102123.25;1701483;83;25886;-61
2022/03/27 09:00:40;;;;;;;22.00;2.65;;;;;;;9.29;23.73;102124.36;1683150;85;25757;-60
2022/03/27 09:03:08;;;;;;;30.43;1.90;;;;;;;9.49;23.64;102132.52;1683600;85;25793;-60
2022/03/27 09:05:40;;;;;;;18.82;2.12;;;;;;;9.63;23.14;102123.12;1683538;83;25896;-61
2022/03/27 09:08:09;;;;;;;41.20;3.70;;;;;;;9.81;22.58;102121.08;1736886;81;28086;-61
2022/03/27 09:10:39;;;;;;;36.55;3.08;;;;;;;9.93;21.73;102102.45;1736545;82;25785;-62
2022/03/27 09:13:13;;;;;;;15.75;2.02;;;;;;;9.99;22.21;102099.34;1736861;82;26187;-62
2022/03/27 09:15:43;;;;;;;24.05;3.30;;;;;;;10.02;22.25;102108.08;1736730;82;25865;-61
2022/03/27 09:18:13;;;;;;;12.82;1.98;;;;;;;10.28;22.56;102104.65;1736968;82;25703;-61
2022/03/27 09:20:53;;;;;;;34.03;3.27;;;;;;;10.50;22.20;102093.34;1736468;82;27567;-61
2022/03/27 09:23:31;;;;;;;13.95;1.72;;;;;;;10.78;22.19;102102.25;1736493;82;25720;-61
2022/03/27 09:26:02;;;;;;;22.52;2.37;;;;;;;10.90;21.15;102093.31;1750013;80;25771;-61
2022/03/27 09:28:40;;;;;;;33.18;3.15;;;;;;;11.19;21.00;102112.47;1754811;81;25832;-61
2022/03/27 09:31:21;;;;;;;14.75;1.75;;;;;;;11.55;20.67;102085.23;1754474;81;26008;-59
2022/03/27 09:33:59;;;;;;;15.95;2.72;;;;;;;12.13;19.91;102086.00;1754252;81;27468;-62
2022/03/27 09:36:34;;;;;;;27.58;3.05;;;;;;;12.65;18.95;102058.27;1754517;81;25739;-63
2022/03/27 09:39:09;;;;;;;15.95;2.22;;;;;;;13.09;19.31;102068.79;1754368;81;25782;-59
2022/03/27 09:41:51;;;;;;;22.67;2.17;;;;;;;13.68;18.54;102079.52;1754534;81;25772;-61
2022/03/27 09:44:22;;;;;;;15.58;2.47;;;;;;;14.25;18.22;102082.95;1754656;81;25775;-62
2022/03/27 09:46:57;;;;;;;18.98;2.37;;;;;;;14.66;18.04;102085.86;1754520;81;27617;-62
2022/03/27 09:49:32;;;;;;;24.92;2.92;;;;;;;14.92;17.88;102094.51;1754684;81;25755;-61
2022/03/27 09:52:05;;;;;;;16.50;2.85;;;;;;;15.52;17.80;102077.55;1753685;81;25770;-62
2022/03/27 09:54:51;;;;;;;22.13;2.40;;;;;;;15.99;17.65;102074.27;1754897;81;26338;-61
2022/03/27 09:57:26;;;;;;;31.07;3.27;;;;;;;16.42;17.02;102069.45;1753115;81;26279;-61
2022/03/27 09:59:56;;;;;;;24.32;2.50;;;;;;;16.43;16.63;102053.02;1749103;82;28050;-62
2022/03/27 10:02:30;;;;;;;21.95;2.70;;;;;;;16.72;16.43;102078.43;1748695;82;25787;-62
2022/03/27 10:05:07;;;;;;;25.70;2.12;;;;;;;16.46;15.77;102073.59;1749150;80;25643;-62
2022/03/27 10:07:41;;;;;;;16.93;2.17;;;;;;;16.90;16.19;102056.81;1748143;81;25770;-60
2022/03/27 10:10:17;;;;;;;24.85;2.10;;;;;;;17.29;14.59;102073.55;1733101;82;25712;-61
2022/03/27 10:12:47;;;;;;;9.55;1.70;;;;;;;17.24;15.44;102071.78;1736313;82;27487;-62
2022/03/27 10:15:18;;;;;;;21.68;2.65;;;;;;;17.78;14.96;102085.56;1732329;82;25731;-62
2022/03/27 10:18:03;;;;;;;17.48;2.62;;;;;;;17.94;14.63;102097.16;1748884;82;25748;-62
2022/03/27 10:20:34;;;;;;;10.93;2.17;;;;;;;18.11;14.59;102096.84;1748853;82;25762;-63
2022/03/27 10:23:09;;;;;;;15.60;2.20;;;;;;;18.53;13.64;102084.48;1748786;82;25921;-63
2022/03/27 10:25:45;;;;;;;27.42;2.62;;;;;;;18.59;13.22;102085.24;1746037;81;27547;-63
2022/03/27 10:28:14;;;;;;;19.00;2.42;;;;;;;18.62;13.69;102086.27;1743655;81;25826;-62
2022/03/27 10:30:41;;;;;;;24.23;2.67;;;;;;;18.25;12.50;102094.09;1740767;82;25792;-62
2022/03/27 10:33:10;;;;;;;23.42;3.72;;;;;;;18.58;12.60;102102.08;1732008;82;25904;-62
2022/03/27 10:36:02;;;;;;;15.93;2.72;;;;;;;18.83;12.88;102090.53;1734236;80;25810;-62
2022/03/27 10:39:09;;;;;;;18.40;2.25;;;;;;;19.01;13.24;102091.88;1735457;82;27552;-62
2022/03/27 10:42:13;;;;;;;30.68;3.22;;;;;;;19.91;12.22;102081.09;1733045;82;25761;-62
2022/03/27 10:44:54;;;;;;;20.62;2.65;;;;;;;19.68;11.84;102081.67;1735164;82;25771;-62
2022/03/27 10:47:25;;;;;;;18.00;2.22;;;;;;;19.57;12.54;102089.66;1733453;80;25816;-62
2022/03/27 10:50:08;;;;;;;38.35;2.27;;;;;;;20.19;12.45;102096.71;1735381;82;26410;-62
2022/03/27 10:52:52;;;;;;;35.77;2.87;;;;;;;20.46;12.27;102083.77;1734857;82;27482;-62
2022/03/27 10:55:20;;;;;;;27.82;2.85;;;;;;;19.57;12.22;102078.73;1732598;82;25794;-63
2022/03/27 10:57:50;;;;;;;28.42;3.77;;;;;;;19.91;12.25;102069.67;1737489;79;25730;-62
2022/03/27 11:00:34;;;;;;;15.45;2.83;;;;;;;19.52;12.58;102076.50;1733635;82;25807;-62
2022/03/27 11:03:02;;;;;;;46.65;3.02;;;;;;;19.28;11.84;102084.05;1724923;81;25831;-62
2022/03/27 11:05:37;;;;;;;17.90;3.12;;;;;;;19.60;12.26;102074.30;1732570;80;27428;-62
2022/03/27 11:08:22;;;;;;;12.35;1.62;;;;;;;19.51;12.56;102084.83;1732696;82;25708;-62
2022/03/27 11:10:58;;;;;;;30.97;2.60;;;;;;;19.44;12.05;102076.95;1731940;82;25764;-61
2022/03/27 11:13:32;;;;;;;23.35;2.37;;;;;;;19.44;12.12;102081.05;1736167;81;25845;-62
2022/03/27 11:16:10;;;;;;;22.82;2.55;;;;;;;19.86;12.36;102066.56;1733844;82;26455;-63
2022/03/27 11:18:49;;;;;;;13.60;1.55;;;;;;;19.37;11.92;102074.89;1733396;81;28487;-63
2022/03/27 11:21:33;;;;;;;18.23;2.62;;;;;;;19.10;12.28;102090.91;1731092;82;25828;-62
2022/03/27 11:24:09;;;;;;;14.53;2.10;;;;;;;18.97;12.27;102070.05;1733989;81;25776;-63
2022/03/27 11:26:37;;;;;;;7.67;1.67;;;;;;;18.81;12.32;102076.20;1718854;83;25807;-62
2022/03/27 11:29:24;;;;;;;11.63;1.52;;;;;;;19.21;12.69;102074.80;1730522;81;26162;-61
2022/03/27 11:32:09;;;;;;;17.23;1.90;;;;;;;19.67;12.66;102063.58;1735050;82;27455;-62
2022/03/27 11:34:38;;;;;;;12.93;2.00;;;;;;;19.34;12.34;102077.09;1734775;82;26412;-61
2022/03/27 11:37:26;;;;;;;14.23;2.40;;;;;;;18.85;12.47;102062.61;1735515;82;25734;-62
2022/03/27 11:39:46;;;;;;;14.30;1.82;;;;;;;18.55;12.69;102080.62;1730650;81;26888;-62
2022/03/27 11:42:29;;;;;;;19.57;2.58;;;;;;;17.91;12.35;102072.46;1732637;81;25731;-63
2022/03/27 11:45:16;;;;;;;27.95;2.30;;;;;;;17.68;12.89;102061.13;1731864;82;28126;-62
2022/03/27 11:47:48;;;;;;;15.78;2.25;;;;;;;17.84;13.09;102079.50;1738183;82;25803;-62
2022/03/27 11:50:27;;;;;;;20.35;2.05;;;;;;;17.83;13.08;102060.97;1732391;82;25470;-62